Terminal Aerodrome Forecast
Issued by NWS

Home | Current Version | Previous Version | Text Only | Print | Product List | Glossary On
Versions: 1 2 3 4 5 6 7 8 9 10 11 12
000
FTUS44 KBMX 021100
TAFANB
TAF
KANB 021140Z 0212/0312 00000KT 2SM BR BKN003 OVC009
      TEMPO 0212/0216 1 1/2SM SHRA OVC004
     FM021600 03005KT 4SM -SHRA BR OVC007=

USA.gov is the U.S. government's official web portal to all federal, state and local government web resources and services.